Aeroporto :
LOGIN :

Iscrizione | Disclaimer

   EN    FR    IT 

 










Sommario :    VFR   VFR Marginale   IFR   IFR Intensivo   IFR Molto Intensivo
Visibilità : 
Base nubi : 
>= 8 km
>= 3000ft
5 / 8 km
1000 / 3000 ft
1500m / 5 km
500 / 1000 ft
800 / 1500m
200 / 500 ft
< 800m
< 200 ft
Simboli :   Temporali  Nebbia  Neve Forte  Precipitazioni Forti  Vento > 20 kt
SIGMETs :   Varie  Temporali  Ghiacco  Turbolenza  Onda orograficha  Ceneri Vulcaniche






- Altitudine del aeroporto : 82 ft
- Codice IATA : QIE


LFMI - Istres

ULTIMO METAR :
  • 170230Z AUTO 09005KT CAVOK 18/15 Q1014 TEMPO 4500 BR

METARs OBSOLETI :
  • 170200Z AUTO 10005KT CAVOK 18/15 Q1014 TEMPO 4500 BR
  • 170130Z AUTO 09005KT CAVOK 18/15 Q1014 TEMPO 4500 BR
  • 170100Z AUTO 11006KT CAVOK 18/15 Q1014 TEMPO 4500 BR
  • 170030Z AUTO 11005KT CAVOK 18/16 Q1015 TEMPO 4500 BR
  • 170000Z AUTO 11004KT CAVOK 19/16 Q1015 NOSIG
  • 162330Z AUTO 12004KT CAVOK 19/15 Q1015 NOSIG
  • 162300Z AUTO 12003KT CAVOK 19/15 Q1015 NOSIG
  • 162230Z AUTO 10003KT CAVOK 19/16 Q1015 NOSIG
  • 162200Z AUTO 13003KT CAVOK 19/15 Q1015 NOSIG
  • 162130Z AUTO 14004KT CAVOK 19/16 Q1014 NOSIG

TAF TAF LFMI
Valido dal 17 a 03 ore il 18 a 03 ore UTC


170200Z 1703/1803 10005KT CAVOK TX28/1713Z TN16/1704Z
PROB30
TEMPO 1703/1704 4500 BR
BECMG 1708/1710 17012KT
BECMG 1719/1721 VRB03KT



MetMap, La meteo Aeronautica in un colpo d'occhio ! - Copyright ORBIFLY Dicembre 2007 - Disclaimer

ORBIFLY MET'MAP TEAM :

Programmazione e sviluppo : Alexandra Zaïnal
Concezione : Baudouin d'Aumeries
Supporto tecnico e logistico : Manuel Goepfert
Aiuto : Marc-Olivier Méhu
Aiuto per la traduzione : Arnaldo La Scala




FONTI E CREDITI :

   NOAA